createdAt,value
2016-12-07T11:18:51.765Z,16.01
2016-12-07T11:19:32.312Z,16.4
2016-12-07T11:20:12.880Z,16.66
2016-12-07T11:20:53.438Z,16.82
2016-12-07T11:21:33.988Z,16.88
2016-12-07T11:22:14.554Z,17.06
2016-12-07T11:22:55.115Z,17.17
2016-12-07T11:23:35.682Z,17.3
2016-12-07T11:50:32.301Z,19.9
2016-12-07T11:51:12.876Z,19.98
2016-12-07T11:52:00.314Z,20
2016-12-07T11:52:40.878Z,20.02
2016-12-07T11:53:21.449Z,20.05
2016-12-07T11:54:02.090Z,20.08
2016-12-07T11:54:43.639Z,20.08
2016-12-07T11:55:24.304Z,20.13
2016-12-07T11:56:05.131Z,20.16
2016-12-07T11:56:45.481Z,20.3
2016-12-07T11:57:26.041Z,20.37
2016-12-07T11:58:06.610Z,20.37
2016-12-07T11:58:47.179Z,20.42
2016-12-07T11:59:27.747Z,20.41
2016-12-07T12:00:08.310Z,20.57
2016-12-07T12:00:48.872Z,20.56
2016-12-07T12:01:29.452Z,20.68
2016-12-07T12:02:10.029Z,20.6
2016-12-07T12:02:50.609Z,20.68
2016-12-07T12:03:31.180Z,20.73
2016-12-07T12:04:11.733Z,20.76
2016-12-07T12:05:07.321Z,20.91
2016-12-07T12:05:47.869Z,20.97
2016-12-07T12:06:28.432Z,20.91
2016-12-07T12:07:09.012Z,21.06
2016-12-07T12:07:49.596Z,21.15
2016-12-07T12:08:30.149Z,21.13
2016-12-07T12:09:10.723Z,21.27
2016-12-07T12:09:51.294Z,21.26
2016-12-07T12:10:31.853Z,21.37
2016-12-07T12:11:12.441Z,21.37
2016-12-07T12:11:53.016Z,21.46
2016-12-07T12:12:33.595Z,21.43
2016-12-07T12:13:14.171Z,21.43
2016-12-07T12:13:54.751Z,21.48
2016-12-07T12:14:35.339Z,21.58
2016-12-07T12:15:15.916Z,21.56
2016-12-07T12:15:56.491Z,21.63
2016-12-07T12:16:37.081Z,21.67
2016-12-07T12:17:17.652Z,21.68
2016-12-07T12:17:58.240Z,21.77
2016-12-07T12:18:38.781Z,21.77
2016-12-07T12:19:19.342Z,21.73
2016-12-07T12:19:59.985Z,21.82
2016-12-07T12:20:40.553Z,21.9
2016-12-07T12:21:21.212Z,21.89
2016-12-07T12:22:01.779Z,21.91
2016-12-07T12:22:42.354Z,21.85
2016-12-07T12:23:22.920Z,21.94
2016-12-07T12:24:03.466Z,21.83
2016-12-07T12:25:41.392Z,21.86
2016-12-07T12:26:22.551Z,21.86
2016-12-07T12:27:03.164Z,21.86
2016-12-07T12:27:43.974Z,21.86
2016-12-07T12:28:24.552Z,21.86
2016-12-07T12:29:05.143Z,21.89
2016-12-07T12:29:45.727Z,21.82
2016-12-07T12:30:26.302Z,21.85
2016-12-07T12:31:06.881Z,21.85
2016-12-07T12:31:47.755Z,21.89
2016-12-07T12:32:28.370Z,21.83
2016-12-07T12:33:08.952Z,21.82
2016-12-07T12:33:49.811Z,21.82
2016-12-07T12:34:30.371Z,21.82
2016-12-07T12:35:10.949Z,21.86
2016-12-07T12:35:51.519Z,21.83
2016-12-07T12:36:32.062Z,21.86
2016-12-07T12:37:12.627Z,21.77
2016-12-07T12:37:53.213Z,21.74
2016-12-07T12:38:33.794Z,21.81
2016-12-07T12:39:14.360Z,21.83
2016-12-07T12:39:54.954Z,21.68
2016-12-07T12:40:35.536Z,21.85
